createdAt,value
2017-10-10T00:01:49.706Z,9.27
2017-10-10T00:04:17.295Z,9.90
2017-10-10T00:06:44.895Z,9.60
2017-10-10T00:09:12.468Z,9.47
2017-10-10T00:11:40.089Z,9.50
2017-10-10T00:14:08.433Z,8.43
2017-10-10T00:16:36.011Z,9.97
2017-10-10T00:19:03.603Z,9.20
2017-10-10T00:21:31.191Z,10.37
2017-10-10T00:23:59.545Z,9.00
2017-10-10T00:26:27.127Z,10.30
2017-10-10T00:28:55.519Z,9.43
2017-10-10T00:31:23.097Z,9.67
2017-10-10T00:33:50.706Z,8.50
2017-10-10T00:36:18.315Z,8.80
2017-10-10T00:38:46.994Z,9.70
2017-10-10T00:41:15.466Z,8.80
2017-10-10T00:43:43.085Z,11.90
2017-10-10T00:46:10.791Z,9.40
2017-10-10T00:48:39.240Z,10.20
2017-10-10T00:51:07.007Z,10.23
2017-10-10T00:53:34.610Z,10.07
2017-10-10T00:56:02.257Z,9.20
2017-10-10T00:58:29.882Z,8.97
2017-10-10T01:00:57.519Z,10.20
2017-10-10T01:03:25.119Z,10.27
2017-10-10T01:05:52.712Z,8.10
2017-10-10T01:08:20.306Z,10.50
2017-10-10T01:10:47.933Z,9.67
2017-10-10T01:13:15.706Z,8.50
2017-10-10T01:15:44.605Z,10.57
2017-10-10T01:18:12.169Z,10.67
2017-10-10T01:20:39.824Z,9.67
2017-10-10T01:23:07.464Z,10.50
2017-10-10T01:25:35.267Z,10.20
2017-10-10T01:28:07.664Z,10.67
2017-10-10T01:30:35.256Z,11.30
2017-10-10T01:33:03.941Z,10.27
2017-10-10T01:35:32.544Z,9.47
2017-10-10T01:38:00.120Z,10.43
2017-10-10T01:40:27.733Z,10.03
2017-10-10T01:42:55.292Z,9.67
2017-10-10T01:45:22.885Z,9.30
2017-10-10T01:47:51.241Z,9.77
2017-10-10T01:50:18.910Z,8.57
2017-10-10T01:52:46.491Z,9.77
2017-10-10T01:55:14.817Z,9.67
2017-10-10T01:57:42.422Z,8.70
2017-10-10T02:00:09.981Z,7.90
2017-10-10T02:02:37.571Z,8.00
2017-10-10T02:05:05.950Z,9.30
2017-10-10T02:07:34.325Z,8.40
2017-10-10T02:10:01.903Z,7.30
2017-10-10T02:12:30.292Z,8.23
2017-10-10T02:14:58.769Z,8.07
2017-10-10T02:17:27.123Z,7.73
2017-10-10T02:19:54.782Z,7.90
2017-10-10T02:22:22.567Z,7.17
2017-10-10T02:24:50.181Z,7.40
2017-10-10T02:27:17.775Z,6.30
2017-10-10T02:29:45.382Z,6.60
2017-10-10T02:32:13.709Z,6.43
2017-10-10T02:34:41.299Z,6.30
2017-10-10T02:37:08.890Z,5.90
2017-10-10T02:39:37.237Z,6.13
2017-10-10T02:42:04.818Z,6.17
2017-10-10T02:44:32.528Z,6.00
2017-10-10T02:47:00.206Z,5.93
2017-10-10T02:49:27.811Z,6.00
2017-10-10T02:51:55.392Z,6.00
2017-10-10T02:54:24.716Z,6.30
2017-10-10T02:56:52.334Z,5.93
2017-10-10T02:59:19.970Z,6.47
2017-10-10T03:01:47.543Z,5.30
2017-10-10T03:04:15.096Z,5.70
2017-10-10T03:06:42.697Z,5.43
2017-10-10T03:09:10.277Z,5.40
2017-10-10T03:11:37.894Z,5.87
2017-10-10T03:14:05.465Z,5.80
2017-10-10T03:16:33.340Z,6.27
2017-10-10T03:19:01.686Z,7.37
2017-10-10T03:21:29.318Z,6.10
2017-10-10T03:23:59.908Z,4.97
2017-10-10T03:26:27.629Z,4.87
2017-10-10T03:28:56.070Z,5.63
2017-10-10T03:31:23.645Z,5.73
2017-10-10T03:33:51.285Z,5.40
2017-10-10T03:36:18.873Z,5.90
2017-10-10T03:38:46.465Z,6.00
2017-10-10T03:41:14.799Z,5.10
2017-10-10T03:43:42.392Z,4.40
2017-10-10T03:46:09.987Z,5.30
2017-10-10T03:48:38.312Z,5.03
2017-10-10T03:51:05.930Z,6.17
2017-10-10T03:53:34.275Z,6.37
2017-10-10T03:56:02.103Z,6.30
2017-10-10T03:58:29.787Z,5.10
2017-10-10T04:00:57.425Z,6.30
2017-10-10T04:03:25.772Z,5.60
2017-10-10T04:05:53.405Z,5.57
2017-10-10T04:08:20.996Z,6.30
2017-10-10T04:10:49.078Z,5.80
2017-10-10T04:13:16.652Z,5.03
2017-10-10T04:15:44.237Z,4.63
2017-10-10T04:18:12.595Z,5.07
2017-10-10T04:20:40.172Z,5.30
2017-10-10T04:23:08.516Z,4.63
2017-10-10T04:25:36.090Z,5.20
2017-10-10T04:28:03.699Z,6.53
2017-10-10T04:30:31.341Z,5.27
2017-10-10T04:32:59.699Z,6.90
2017-10-10T04:35:27.415Z,5.37
2017-10-10T04:37:56.933Z,6.10
2017-10-10T04:40:24.777Z,4.70
2017-10-10T04:42:53.150Z,5.77
2017-10-10T04:45:20.746Z,6.67
2017-10-10T04:47:48.329Z,5.50
2017-10-10T04:50:15.927Z,6.13
2017-10-10T04:52:43.530Z,6.50
2017-10-10T04:55:11.128Z,6.00
2017-10-10T04:57:38.707Z,6.77
2017-10-10T05:00:06.326Z,6.20
2017-10-10T05:02:33.888Z,7.20
2017-10-10T05:05:01.446Z,6.23
2017-10-10T05:07:29.819Z,6.27
2017-10-10T05:09:58.219Z,7.00
2017-10-10T05:12:26.004Z,6.70
2017-10-10T05:14:53.711Z,6.93
2017-10-10T05:17:21.300Z,5.50
2017-10-10T05:19:49.640Z,7.10
2017-10-10T05:22:17.215Z,6.33
2017-10-10T05:24:44.811Z,5.93
2017-10-10T05:27:13.182Z,6.37
2017-10-10T05:29:41.556Z,6.90
2017-10-10T05:32:09.149Z,8.57
2017-10-10T05:34:37.523Z,8.90
2017-10-10T05:37:05.878Z,8.60
2017-10-10T05:39:33.517Z,7.40
2017-10-10T05:42:01.170Z,8.63
2017-10-10T05:44:28.811Z,7.70
2017-10-10T05:46:57.177Z,10.30
2017-10-10T05:49:24.781Z,9.53
2017-10-10T05:51:52.367Z,8.83
2017-10-10T05:54:19.963Z,8.60
2017-10-10T05:56:47.547Z,7.30
2017-10-10T05:59:15.167Z,7.20
2017-10-10T06:01:42.736Z,7.80
2017-10-10T06:04:10.322Z,7.70
2017-10-10T06:06:37.922Z,6.70
2017-10-10T06:09:05.544Z,7.10
2017-10-10T06:11:34.066Z,7.57
2017-10-10T06:14:02.618Z,8.20
2017-10-10T06:16:30.203Z,8.17
2017-10-10T06:18:58.561Z,8.03
2017-10-10T06:21:26.171Z,6.97
2017-10-10T06:23:53.729Z,7.50
2017-10-10T06:26:21.319Z,6.67
2017-10-10T06:28:48.881Z,8.77
2017-10-10T06:31:16.470Z,8.00
2017-10-10T06:33:44.055Z,6.90
2017-10-10T06:36:12.426Z,8.07
2017-10-10T06:38:40.026Z,6.90
2017-10-10T06:41:08.683Z,8.40
2017-10-10T06:43:36.275Z,8.33
2017-10-10T06:46:06.250Z,7.43
2017-10-10T06:48:33.889Z,7.43
2017-10-10T06:51:01.710Z,8.10
2017-10-10T06:53:29.321Z,8.67
2017-10-10T06:55:56.910Z,8.47
2017-10-10T06:58:24.525Z,8.40
2017-10-10T07:00:52.858Z,8.43
2017-10-10T07:03:20.457Z,9.23
2017-10-10T07:08:31.437Z,7.37
2017-10-10T07:10:59.072Z,9.90
2017-10-10T07:13:26.863Z,8.30
2017-10-10T07:15:54.657Z,7.90
2017-10-10T07:18:22.313Z,6.67
2017-10-10T07:20:50.696Z,7.93
2017-10-10T07:23:18.540Z,8.90
2017-10-10T07:25:46.163Z,8.27
2017-10-10T07:28:13.757Z,8.40
2017-10-10T07:30:41.313Z,10.10
2017-10-10T07:33:08.904Z,8.00
2017-10-10T07:35:36.498Z,8.40
2017-10-10T07:38:04.920Z,8.40
2017-10-10T07:40:32.721Z,9.63
2017-10-10T07:43:00.325Z,9.27
2017-10-10T07:45:32.761Z,8.87
2017-10-10T07:48:00.429Z,8.43
2017-10-10T07:50:28.053Z,8.70
2017-10-10T07:52:55.718Z,10.67
2017-10-10T07:55:23.349Z,10.73
2017-10-10T07:57:51.697Z,9.23
2017-10-10T08:00:19.284Z,10.47
2017-10-10T08:02:47.626Z,9.93
2017-10-10T08:05:15.223Z,9.23
2017-10-10T08:07:42.799Z,10.67
2017-10-10T08:10:10.407Z,8.43
2017-10-10T08:12:37.996Z,10.53
2017-10-10T08:15:05.576Z,10.00
2017-10-10T08:17:33.583Z,11.10
2017-10-10T08:20:02.407Z,9.47
2017-10-10T08:22:30.046Z,8.97
2017-10-10T08:24:57.628Z,7.90
2017-10-10T08:27:25.380Z,10.30
2017-10-10T08:29:54.072Z,10.17
2017-10-10T08:32:21.687Z,10.03
2017-10-10T08:34:49.269Z,10.37
2017-10-10T08:37:16.852Z,10.23
2017-10-10T08:39:45.219Z,8.67
2017-10-10T08:42:13.581Z,10.80
2017-10-10T08:44:42.320Z,9.83
2017-10-10T08:47:09.904Z,9.30
2017-10-10T08:49:37.493Z,10.97
2017-10-10T08:52:05.197Z,8.93
2017-10-10T08:54:33.569Z,11.47
2017-10-10T08:57:01.133Z,9.40
2017-10-10T08:59:28.758Z,8.97
2017-10-10T09:01:56.386Z,9.37
2017-10-10T09:04:24.737Z,11.10
2017-10-10T09:06:52.400Z,8.27
2017-10-10T09:09:19.975Z,7.90
2017-10-10T09:11:47.558Z,9.30
2017-10-10T09:14:15.909Z,10.50
2017-10-10T09:16:43.520Z,9.20
2017-10-10T09:19:11.135Z,9.30
2017-10-10T09:21:38.747Z,10.43
2017-10-10T09:24:06.322Z,8.90
2017-10-10T09:26:33.925Z,9.90
2017-10-10T09:29:01.568Z,10.30
2017-10-10T09:31:29.156Z,9.80
2017-10-10T09:33:56.749Z,9.10
2017-10-10T09:36:25.101Z,9.43
2017-10-10T09:38:52.708Z,9.77
2017-10-10T09:41:20.272Z,11.07
2017-10-10T09:43:47.856Z,9.90
2017-10-10T09:46:15.431Z,9.37
2017-10-10T09:48:43.821Z,10.37
2017-10-10T09:51:11.393Z,9.93
2017-10-10T09:53:38.999Z,8.97
2017-10-10T09:56:07.616Z,10.10
2017-10-10T09:58:35.177Z,9.70
2017-10-10T10:01:02.772Z,9.70
2017-10-10T10:03:30.343Z,8.60
2017-10-10T10:05:57.952Z,9.00
2017-10-10T10:08:26.299Z,8.67
2017-10-10T10:10:53.914Z,9.30
2017-10-10T10:13:21.507Z,7.87
2017-10-10T10:15:49.097Z,8.80
2017-10-10T10:18:17.355Z,7.63
2017-10-10T10:20:44.949Z,8.40
2017-10-10T10:23:12.523Z,8.23
2017-10-10T10:25:40.932Z,7.53
2017-10-10T10:28:08.631Z,8.43
2017-10-10T10:30:43.000Z,7.77
2017-10-10T10:33:11.661Z,7.60
2017-10-10T10:35:45.807Z,8.30
2017-10-10T10:38:15.636Z,7.90
2017-10-10T10:40:43.228Z,7.77
2017-10-10T10:43:10.839Z,8.77
2017-10-10T10:45:44.195Z,7.70
2017-10-10T10:48:11.768Z,7.60
2017-10-10T10:50:39.377Z,6.70
2017-10-10T10:53:07.726Z,6.73
2017-10-10T10:58:13.470Z,9.10
2017-10-10T11:00:41.137Z,6.73
2017-10-10T11:03:08.716Z,7.97
2017-10-10T11:05:42.728Z,7.30
2017-10-10T11:08:10.325Z,7.53
2017-10-10T11:10:38.752Z,8.00
2017-10-10T11:13:06.389Z,6.70
2017-10-10T11:15:33.972Z,6.77
2017-10-10T11:18:01.581Z,6.80
2017-10-10T11:20:29.161Z,6.40
2017-10-10T11:22:56.762Z,7.30
2017-10-10T11:25:24.329Z,6.70
2017-10-10T11:27:51.913Z,7.03
2017-10-10T11:30:19.498Z,8.10
2017-10-10T11:32:47.655Z,8.10
2017-10-10T11:35:15.232Z,8.20
2017-10-10T11:37:42.824Z,8.20
2017-10-10T11:40:10.684Z,7.40
2017-10-10T11:42:38.283Z,7.60
2017-10-10T11:45:05.877Z,6.70
2017-10-10T11:47:33.487Z,7.77
2017-10-10T11:50:01.064Z,7.40
2017-10-10T11:52:29.416Z,6.60
2017-10-10T11:54:57.016Z,7.13
2017-10-10T11:57:25.370Z,7.37
2017-10-10T11:59:52.954Z,7.13
2017-10-10T12:02:21.286Z,8.00
2017-10-10T12:04:49.237Z,7.30
2017-10-10T12:07:16.831Z,8.60
2017-10-10T12:09:44.580Z,7.00
2017-10-10T12:12:12.160Z,7.50
2017-10-10T12:14:39.950Z,9.17
2017-10-10T12:17:07.717Z,8.07
2017-10-10T12:19:35.324Z,5.67
2017-10-10T12:22:02.925Z,7.37
2017-10-10T12:24:30.515Z,7.67
2017-10-10T12:26:58.907Z,5.73
2017-10-10T12:29:26.489Z,7.83
2017-10-10T12:31:54.816Z,8.03
2017-10-10T12:34:22.407Z,7.53
2017-10-10T12:36:50.006Z,6.80
2017-10-10T12:39:17.627Z,7.10
2017-10-10T12:41:45.203Z,6.67
2017-10-10T12:44:12.800Z,6.53
2017-10-10T12:46:40.413Z,6.80
2017-10-10T12:49:08.099Z,5.80
2017-10-10T12:51:35.687Z,7.50
2017-10-10T12:54:04.063Z,6.80
2017-10-10T12:56:32.409Z,7.70
2017-10-10T12:58:59.998Z,6.63
2017-10-10T13:01:27.616Z,7.70
2017-10-10T13:03:55.191Z,6.57
2017-10-10T13:06:22.808Z,5.60
2017-10-10T13:08:51.137Z,6.13
2017-10-10T13:11:18.803Z,6.47
2017-10-10T13:13:46.652Z,6.27
2017-10-10T13:16:14.337Z,7.23
2017-10-10T13:18:41.949Z,6.40
2017-10-10T13:21:10.283Z,6.20
2017-10-10T13:23:38.358Z,7.17
2017-10-10T13:26:05.916Z,7.07
2017-10-10T13:28:33.519Z,7.00
2017-10-10T13:31:01.079Z,7.17
2017-10-10T13:33:28.656Z,7.37
2017-10-10T13:35:57.090Z,6.73
2017-10-10T13:38:24.687Z,7.73
2017-10-10T13:40:52.291Z,7.27
2017-10-10T13:43:19.853Z,6.70
2017-10-10T13:45:48.227Z,6.37
2017-10-10T13:48:16.649Z,7.40
2017-10-10T13:50:44.227Z,6.90
2017-10-10T13:53:11.853Z,5.37
2017-10-10T13:55:45.520Z,7.30
2017-10-10T13:58:13.140Z,7.30
2017-10-10T14:00:40.718Z,7.50
2017-10-10T14:03:08.342Z,6.40
2017-10-10T14:05:43.983Z,7.50
2017-10-10T14:08:12.381Z,5.97
2017-10-10T14:10:40.927Z,6.53
2017-10-10T14:13:08.689Z,7.43
2017-10-10T14:15:36.285Z,5.83
2017-10-10T14:18:03.880Z,6.70
2017-10-10T14:20:31.489Z,6.37
2017-10-10T14:22:59.070Z,7.20
2017-10-10T14:25:27.439Z,6.13
2017-10-10T14:27:55.015Z,6.07
2017-10-10T14:30:23.363Z,5.67
2017-10-10T14:32:50.966Z,5.80
2017-10-10T14:35:18.569Z,5.70
2017-10-10T14:37:46.960Z,5.37
2017-10-10T14:40:14.539Z,6.27
2017-10-10T14:42:42.163Z,5.37
2017-10-10T14:45:09.813Z,5.10
2017-10-10T14:47:38.156Z,4.80
2017-10-10T14:50:05.783Z,5.40
2017-10-10T14:52:33.383Z,4.67
2017-10-10T14:55:00.941Z,4.50
2017-10-10T14:57:28.538Z,4.80
2017-10-10T14:59:56.906Z,4.47
2017-10-10T15:02:24.541Z,5.43
2017-10-10T15:04:52.132Z,5.03
2017-10-10T15:07:19.692Z,6.30
2017-10-10T15:09:47.291Z,4.00
2017-10-10T15:12:15.644Z,5.00
2017-10-10T15:14:43.379Z,5.30
2017-10-10T15:17:11.072Z,5.00
2017-10-10T15:19:38.703Z,5.40
2017-10-10T15:22:06.380Z,5.23
2017-10-10T15:24:34.042Z,5.07
2017-10-10T15:27:01.641Z,4.93
2017-10-10T15:29:29.218Z,4.83
2017-10-10T15:31:56.836Z,4.50
2017-10-10T15:34:24.424Z,4.67
2017-10-10T15:36:52.023Z,4.80
2017-10-10T15:39:20.363Z,4.50
2017-10-10T15:41:47.977Z,4.97
2017-10-10T15:44:16.292Z,4.17
2017-10-10T15:46:44.207Z,5.53
2017-10-10T15:49:12.570Z,5.63
2017-10-10T15:51:40.186Z,4.07
2017-10-10T15:54:08.324Z,3.60
2017-10-10T15:56:35.649Z,4.57
2017-10-10T15:59:03.234Z,4.70
2017-10-10T16:01:30.803Z,4.90
2017-10-10T16:03:58.520Z,4.67
2017-10-10T16:06:26.108Z,4.53
2017-10-10T16:08:53.696Z,4.17
2017-10-10T16:11:21.337Z,3.23
2017-10-10T16:13:49.758Z,4.60
2017-10-10T16:16:17.381Z,4.10
2017-10-10T16:18:44.962Z,4.43
2017-10-10T16:21:12.550Z,4.33
2017-10-10T16:23:40.145Z,5.07
2017-10-10T16:26:08.512Z,4.70
2017-10-10T16:28:36.091Z,3.87
2017-10-10T16:31:04.465Z,4.80
2017-10-10T16:33:32.803Z,5.20
2017-10-10T16:36:00.594Z,4.87
2017-10-10T16:38:28.940Z,5.53
2017-10-10T16:40:56.538Z,5.83
2017-10-10T16:43:24.131Z,6.93
2017-10-10T16:45:52.495Z,4.50
2017-10-10T16:48:20.102Z,5.00
2017-10-10T16:50:48.749Z,6.00
2017-10-10T16:53:16.425Z,4.50
2017-10-10T16:55:44.799Z,5.20
2017-10-10T16:58:12.399Z,4.50
2017-10-10T17:00:40.166Z,3.90
2017-10-10T17:03:07.753Z,4.73
2017-10-10T17:05:35.520Z,5.10
2017-10-10T17:08:04.719Z,4.80
2017-10-10T17:10:32.274Z,4.90
2017-10-10T17:12:59.909Z,5.10
2017-10-10T17:15:28.245Z,5.13
2017-10-10T17:17:55.819Z,5.13
2017-10-10T17:20:23.460Z,5.27
2017-10-10T17:22:51.036Z,4.43
2017-10-10T17:25:18.631Z,4.90
2017-10-10T17:27:46.342Z,5.67
2017-10-10T17:30:13.915Z,4.60
2017-10-10T17:32:41.682Z,5.30
2017-10-10T17:35:09.263Z,4.73
2017-10-10T17:37:36.835Z,4.60
2017-10-10T17:40:04.450Z,6.00
2017-10-10T17:42:32.562Z,5.83
2017-10-10T17:45:00.149Z,4.90
2017-10-10T17:47:27.754Z,5.33
2017-10-10T17:49:55.342Z,4.57
2017-10-10T17:52:22.962Z,5.73
2017-10-10T17:54:50.546Z,5.03
2017-10-10T17:57:19.274Z,5.40
2017-10-10T17:59:46.961Z,4.80
2017-10-10T18:02:14.601Z,4.90
2017-10-10T18:04:42.357Z,5.43
2017-10-10T18:07:11.368Z,4.47
2017-10-10T18:09:39.779Z,4.70
2017-10-10T18:12:08.904Z,3.90
2017-10-10T18:14:37.025Z,4.90
2017-10-10T18:17:04.621Z,4.37
2017-10-10T18:19:32.412Z,4.80
2017-10-10T18:22:00.124Z,4.67
2017-10-10T18:24:27.718Z,4.20
2017-10-10T18:26:58.011Z,4.67
2017-10-10T18:29:25.902Z,4.70
2017-10-10T18:31:53.819Z,4.63
2017-10-10T18:34:22.166Z,5.37
2017-10-10T18:36:49.795Z,5.27
2017-10-10T18:39:17.491Z,4.97
2017-10-10T18:41:45.130Z,4.37
2017-10-10T18:44:12.722Z,3.83
2017-10-10T18:46:40.472Z,4.40
2017-10-10T18:49:08.104Z,4.60
2017-10-10T18:51:36.799Z,3.60
2017-10-10T18:54:05.430Z,5.07
2017-10-10T18:56:33.061Z,4.60
2017-10-10T18:59:00.677Z,5.20
2017-10-10T19:01:28.485Z,4.97
2017-10-10T19:03:56.186Z,5.33
2017-10-10T19:06:23.863Z,4.70
2017-10-10T19:08:51.449Z,4.90
2017-10-10T19:11:19.281Z,4.23
2017-10-10T19:13:46.930Z,4.77
2017-10-10T19:16:14.613Z,4.70
2017-10-10T19:18:42.390Z,5.70
2017-10-10T19:21:10.150Z,5.17
2017-10-10T19:23:37.860Z,3.63
2017-10-10T19:26:05.803Z,4.30
2017-10-10T19:28:33.487Z,4.83
2017-10-10T19:31:01.328Z,4.00
2017-10-10T19:33:29.201Z,3.70
2017-10-10T19:35:56.805Z,4.67
2017-10-10T19:38:25.373Z,4.03
2017-10-10T19:40:52.976Z,4.53
2017-10-10T19:43:21.600Z,3.90
2017-10-10T19:45:49.397Z,4.20
2017-10-10T19:48:17.138Z,4.70
2017-10-10T19:50:44.906Z,5.57
2017-10-10T19:53:12.677Z,4.80
2017-10-10T19:55:40.339Z,3.77
2017-10-10T19:58:08.214Z,4.13
2017-10-10T20:00:35.823Z,3.40
2017-10-10T20:03:04.269Z,3.90
2017-10-10T20:05:40.556Z,4.00
2017-10-10T20:08:08.525Z,4.77
2017-10-10T20:10:36.849Z,4.00
2017-10-10T20:13:04.596Z,4.43
2017-10-10T20:15:38.365Z,4.73
2017-10-10T20:18:06.060Z,4.70
2017-10-10T20:20:33.992Z,5.80
2017-10-10T20:23:01.966Z,4.57
2017-10-10T20:25:29.726Z,5.07
2017-10-10T20:27:57.344Z,4.47
2017-10-10T20:33:01.940Z,4.53
2017-10-10T20:35:37.788Z,3.93
2017-10-10T20:38:06.116Z,4.57
2017-10-10T20:40:36.314Z,3.80
2017-10-10T20:43:03.943Z,5.27
2017-10-10T20:45:34.812Z,4.63
2017-10-10T20:48:05.558Z,4.53
2017-10-10T20:50:33.133Z,4.90
2017-10-10T20:53:00.746Z,4.63
2017-10-10T20:55:30.362Z,4.13
2017-10-10T20:58:00.292Z,4.87
2017-10-10T21:00:27.898Z,4.53
2017-10-10T21:02:55.478Z,5.30
2017-10-10T21:05:23.116Z,4.67
2017-10-10T21:07:50.717Z,5.37
2017-10-10T21:10:19.127Z,6.37
2017-10-10T21:12:46.698Z,5.00
2017-10-10T21:15:14.352Z,5.10
2017-10-10T21:17:49.821Z,4.90
2017-10-10T21:20:18.207Z,5.50
2017-10-10T21:22:45.820Z,4.63
2017-10-10T21:25:14.163Z,5.50
2017-10-10T21:27:41.760Z,5.00
2017-10-10T21:30:10.843Z,5.43
2017-10-10T21:32:38.449Z,5.10
2017-10-10T21:35:06.132Z,4.93
2017-10-10T21:37:33.819Z,4.57
2017-10-10T21:40:01.421Z,4.80
2017-10-10T21:42:29.802Z,5.80
2017-10-10T21:44:58.200Z,5.53
2017-10-10T21:47:27.946Z,4.50
2017-10-10T21:49:55.551Z,5.17
2017-10-10T21:52:23.119Z,4.60
2017-10-10T21:54:50.715Z,4.57
2017-10-10T21:57:18.305Z,5.77
2017-10-10T21:59:46.010Z,4.37
2017-10-10T22:02:13.949Z,4.60
2017-10-10T22:04:41.526Z,4.37
2017-10-10T22:07:09.151Z,4.83
2017-10-10T22:09:36.768Z,3.20
2017-10-10T22:12:04.450Z,5.20
2017-10-10T22:14:33.041Z,5.00
2017-10-10T22:17:01.472Z,5.30
2017-10-10T22:19:29.163Z,3.37
2017-10-10T22:21:56.726Z,3.47
2017-10-10T22:24:24.333Z,5.37
2017-10-10T22:26:52.742Z,4.60
2017-10-10T22:29:20.398Z,4.43
2017-10-10T22:31:47.978Z,3.90
2017-10-10T22:34:15.574Z,4.40
2017-10-10T22:36:43.565Z,3.80
2017-10-10T22:39:12.015Z,4.07
2017-10-10T22:41:39.725Z,4.43
2017-10-10T22:44:08.061Z,4.83
2017-10-10T22:46:35.667Z,5.30
2017-10-10T22:49:03.240Z,4.73
2017-10-10T22:51:31.589Z,4.97
2017-10-10T22:53:59.176Z,4.90
2017-10-10T22:56:26.765Z,4.73
2017-10-10T22:58:55.173Z,4.70
2017-10-10T23:01:22.737Z,3.87
2017-10-10T23:03:50.512Z,5.00
2017-10-10T23:06:18.349Z,4.77
2017-10-10T23:08:46.276Z,4.77
2017-10-10T23:11:13.871Z,4.40
2017-10-10T23:13:42.217Z,3.60
2017-10-10T23:16:09.814Z,4.27
2017-10-10T23:18:38.157Z,5.00
2017-10-10T23:21:05.759Z,4.00
2017-10-10T23:23:34.103Z,5.10
2017-10-10T23:26:01.694Z,4.87
2017-10-10T23:28:29.291Z,3.60
2017-10-10T23:30:56.859Z,4.03
2017-10-10T23:33:24.706Z,3.23
2017-10-10T23:35:53.189Z,3.50
2017-10-10T23:38:22.547Z,4.20
2017-10-10T23:40:50.115Z,4.47
2017-10-10T23:43:17.918Z,3.47
2017-10-10T23:45:46.308Z,3.73
2017-10-10T23:48:14.677Z,2.93
2017-10-10T23:50:43.054Z,3.40
2017-10-10T23:53:10.633Z,3.80
2017-10-10T23:55:45.171Z,2.97
2017-10-10T23:58:13.507Z,3.60
